Samnorwood, Texas
Current Conditions -  °F | °C
As of 1:53 AM on Monday 26 Jan 2015 (Local Time) from KCDS Reporting Station
Clear Clear  
Wind Chill: 38°   Ceiling: Unl
Heat Index: 41°   Visibility: 10mi
Dew Point: 32°   Wind: 5mph
Humidity: 70%   Direction: 270°W
Pressure: 30.22"   Gusts: NA
Location:  35.05°N, 100.28°W
Report Text: KCDS 260753Z AUTO 27004KT 10SM CLR 05/00 A3022 RMK AO2 SLP230 T00500000 $
Loading
Personal Weather Stations






























Interactive Weather Map New forecast layout! Learn more

10-Day Weather Forecast

Advertisements
Track Severe Weather on mobile